METAR Data
IDs: Format: Raw Decoded Include TAF

Data at: 0215 UTC 20 Jan 2022

KBFI 200153Z 00000KT 10SM OVC026 09/07 A3027 RMK AO2 SLP249 T00940067
KBFI 200053Z 15003KT 10SM BKN026 OVC032 10/06 A3026 RMK AO2 SLP247 T01000056
KBFI 200050Z 17003KT 10SM BKN028 OVC032 10/06 A3026 RMK AO2
KBFI 192353Z 00000KT 10SM OVC031 10/05 A3027 RMK AO2 SLP249 T01000050 10100 20072 56010
KBFI 192253Z 00000KT 10SM OVC034 10/05 A3028 RMK AO2 SLP252 T01000050
KBFI 192153Z 00000KT 10SM BKN029 OVC034 09/06 A3028 RMK AO2 SLP254 T00940056
KBFI 192053Z 16004KT 10SM BKN029 OVC034 09/06 A3030 RMK AO2 SLP259 T00890056 58005
KBFI 191953Z 15005KT 10SM BKN029 OVC043 08/06 A3031 RMK AO2 SLP264 T00830056
KBFI 191853Z 17006KT 10SM BKN041 OVC065 08/06 A3032 RMK AO2 SLP266 T00780056
KBFI 191753Z 16005KT 10SM FEW030 BKN080 BKN110 07/06 A3031 RMK AO2 SLP264 T00720056 10072 20056 50007
KBFI 191653Z 14003KT 10SM SCT120 OVC250 07/06 A3031 RMK AO2 SLP265 T00670056
KBFI 191553Z 16004KT 10SM OVC110 06/05 A3029 RMK AO2 SLP258 T00610050
KBFI 191500Z 14005KT 10SM BKN120 06/06 A3029 RMK AO2 T00610056
KBFI 191453Z 16004KT 10SM BKN025 OVC030 06/06 A3029 RMK AO2 SLP257 T00610056 53004
KBFI 191353Z 17004KT 10SM BKN025 OVC030 07/06 A3028 RMK AO2 SLP254 T00670056
KBFI 191300Z 14005KT 10SM BKN025 OVC030 07/07 A3028 RMK AO2 T00670067
KBFI 191253Z COR 15004KT 10SM BKN025 OVC030 07/07 A3028 RMK AO2 SLP253 T00670067
KBFI 191153Z 15004KT 10SM BKN025 BKN030 07/06 A3028 RMK AO2 SLP253 T00670061 10083 20061 51011
KBFI 191100Z 14004KT 9SM OVC025 07/07 A3028 RMK AO2 T00720067
KBFI 191053Z 14005KT 10SM SCT015 BKN036 07/07 A3028 RMK AO2 SLP252 T00720067
KBFI 190953Z 13004KT 7SM SCT015 BKN036 06/06 A3025 RMK AO2 SLP244 T00610061
KBFI 190927Z 14003KT 6SM BR SCT013 SCT024 07/07 A3025 RMK AO2 T00670067
KBFI 190913Z 15004KT 7SM BKN013 07/07 A3025 RMK AO2 T00670067
KBFI 190904Z 14004KT 7SM SCT013 08/07 A3025 RMK AO2 T00780072
KBFI 190853Z 13005KT 7SM BKN012 BKN042 08/07 A3025 RMK AO2 SLP242 T00780072 51010
KBFI 190753Z 15005KT 7SM SCT013 OVC038 08/08 A3023 RMK AO2 SLP237 T00780078 400830072
KBFI 190653Z 15005KT 9SM SCT023 OVC034 08/08 A3024 RMK AO2 SLP238 T00830078
KBFI 190553Z 13004KT 10SM OVC015 08/08 A3022 RMK AO2 SLP232 60000 T00830078 10083 20083 51008
KBFI 190453Z 14005KT 10SM FEW009 SCT022 OVC030 08/08 A3022 RMK AO2 SLP231 T00830078
KBFI 190353Z 16004KT 10SM FEW009 SCT022 OVC030 08/08 A3020 RMK AO2 SLP226 T00830078
KBFI 190253Z 00000KT 10SM OVC021 08/08 A3019 RMK AO2 SLP223 60000 T00830078 51010